createdAt,value
2022-12-12T00:01:52.336Z,18.27
2022-12-12T00:04:19.262Z,19.35
2022-12-12T00:06:52.042Z,16.70
2022-12-12T00:09:25.422Z,17.50
2022-12-12T00:11:52.318Z,18.33
2022-12-12T00:14:19.222Z,17.65
2022-12-12T00:16:52.302Z,17.90
2022-12-12T00:19:19.177Z,16.30
2022-12-12T00:21:46.002Z,18.85
2022-12-12T00:24:19.239Z,17.75
2022-12-12T00:26:53.422Z,16.60
2022-12-12T00:29:20.352Z,15.73
2022-12-12T00:31:54.341Z,18.02
2022-12-12T00:34:21.451Z,18.90
2022-12-12T00:36:48.371Z,16.27
2022-12-12T00:39:21.293Z,21.83
2022-12-12T00:41:48.533Z,18.73
2022-12-12T00:44:22.295Z,15.75
2022-12-12T00:46:55.264Z,16.35
2022-12-12T00:49:29.271Z,17.00
2022-12-12T00:52:03.302Z,17.67
2022-12-12T00:54:30.331Z,16.23
2022-12-12T00:57:03.320Z,19.10
2022-12-12T00:59:36.309Z,18.55
2022-12-12T01:02:10.375Z,20.65
2022-12-12T01:04:37.365Z,22.95
2022-12-12T01:07:04.198Z,21.90
2022-12-12T01:09:37.335Z,21.45
2022-12-12T01:12:04.357Z,24.77
2022-12-12T01:14:31.443Z,20.33
2022-12-12T01:17:05.454Z,23.67
2022-12-12T01:19:32.849Z,24.30
2022-12-12T01:21:59.918Z,22.92
2022-12-12T01:24:33.666Z,22.13
2022-12-12T01:27:00.527Z,22.20
2022-12-12T01:29:27.760Z,19.60
2022-12-12T01:32:01.336Z,20.45
2022-12-12T01:34:28.171Z,20.08
2022-12-12T01:37:01.341Z,18.30
2022-12-12T01:39:34.590Z,20.50
2022-12-12T01:42:01.417Z,25.55
2022-12-12T01:44:56.571Z,19.13
2022-12-12T01:47:24.649Z,22.65
2022-12-12T01:50:16.374Z,21.42
2022-12-12T01:52:56.357Z,19.73
2022-12-12T01:55:23.669Z,20.67
2022-12-12T01:57:54.615Z,23.23
2022-12-12T02:00:28.433Z,22.50
2022-12-12T02:02:56.592Z,24.08
2022-12-12T02:05:39.454Z,22.35
2022-12-12T02:08:14.576Z,20.67
2022-12-12T02:10:41.720Z,24.58
2022-12-12T02:13:27.485Z,21.92
2022-12-12T02:16:23.621Z,23.75
2022-12-12T02:19:06.469Z,22.27
2022-12-12T02:21:47.393Z,23.55
2022-12-12T02:25:01.507Z,22.58
2022-12-12T02:28:05.430Z,26.13
2022-12-12T02:31:02.484Z,25.13
2022-12-12T02:33:58.035Z,25.40
2022-12-12T02:36:39.775Z,26.10
2022-12-12T02:39:25.242Z,29.45
2022-12-12T02:42:07.523Z,27.40
2022-12-12T02:44:55.484Z,27.40
2022-12-12T02:47:32.741Z,27.20
2022-12-12T02:50:14.459Z,28.45
2022-12-12T02:52:43.505Z,26.15
2022-12-12T02:55:10.466Z,25.77
2022-12-12T02:57:44.498Z,29.15
2022-12-12T03:00:17.758Z,29.25
2022-12-12T03:03:44.516Z,27.50
2022-12-12T03:06:36.376Z,27.67
2022-12-12T03:09:26.547Z,29.67
2022-12-12T03:11:56.673Z,30.55
2022-12-12T03:14:45.799Z,26.00
2022-12-12T03:17:41.409Z,25.75
2022-12-12T03:20:43.533Z,25.77
2022-12-12T03:23:16.299Z,25.02
2022-12-12T03:26:23.799Z,25.73
2022-12-12T03:29:07.559Z,28.42
2022-12-12T03:31:44.541Z,27.98
2022-12-12T03:34:21.664Z,26.45
2022-12-12T03:37:02.585Z,29.80
2022-12-12T03:39:53.241Z,27.55
2022-12-12T03:42:36.576Z,26.40
2022-12-12T03:45:16.879Z,26.30
2022-12-12T03:48:10.229Z,25.23
2022-12-12T03:50:49.185Z,25.77
2022-12-12T03:53:32.551Z,33.15
2022-12-12T03:56:06.874Z,28.02
2022-12-12T03:58:50.723Z,28.00
2022-12-12T04:01:21.309Z,29.42
2022-12-12T04:04:16.841Z,27.58
2022-12-12T04:07:03.745Z,30.80
2022-12-12T04:09:56.564Z,29.98
2022-12-12T04:12:54.494Z,27.92
2022-12-12T04:15:53.826Z,27.35
2022-12-12T04:18:53.762Z,30.70
2022-12-12T04:22:00.660Z,28.55
2022-12-12T04:24:48.417Z,27.38
2022-12-12T04:27:26.609Z,30.17
2022-12-12T04:30:14.891Z,26.52
2022-12-12T04:33:15.068Z,25.98
2022-12-12T04:35:51.609Z,25.33
2022-12-12T04:38:24.685Z,31.08
2022-12-12T04:41:02.596Z,25.50
2022-12-12T04:43:33.462Z,29.73
2022-12-12T04:46:15.673Z,30.05
2022-12-12T04:48:46.139Z,30.67
2022-12-12T04:51:22.941Z,27.55
2022-12-12T04:54:01.352Z,31.17
2022-12-12T04:56:37.661Z,25.50
2022-12-12T04:59:05.947Z,29.60
2022-12-12T05:01:53.515Z,28.80
2022-12-12T05:04:56.848Z,26.35
2022-12-12T05:07:41.643Z,25.35
2022-12-12T05:10:14.395Z,31.10
2022-12-12T05:12:54.714Z,30.23
2022-12-12T05:15:28.714Z,25.02
2022-12-12T05:18:08.046Z,29.95
2022-12-12T05:20:41.926Z,30.90
2022-12-12T05:23:08.852Z,26.65
2022-12-12T05:25:36.552Z,30.80
2022-12-12T05:28:09.926Z,27.90
2022-12-12T05:30:36.971Z,30.95
2022-12-12T05:33:03.936Z,31.48
2022-12-12T05:35:38.020Z,33.30
2022-12-12T05:38:05.002Z,29.58
2022-12-12T05:40:32.196Z,32.03
2022-12-12T05:43:07.029Z,32.25
2022-12-12T05:45:34.004Z,28.17
2022-12-12T05:48:00.866Z,29.40
2022-12-12T05:50:34.804Z,28.25
2022-12-12T05:53:01.800Z,30.88
2022-12-12T05:55:28.746Z,31.27
2022-12-12T05:58:05.037Z,26.45
2022-12-12T06:00:31.969Z,29.83
2022-12-12T06:02:58.723Z,32.58
2022-12-12T06:05:33.005Z,29.98
2022-12-12T06:07:59.968Z,27.38
2022-12-12T06:10:27.213Z,32.03
2022-12-12T06:13:06.032Z,32.28
2022-12-12T06:15:33.009Z,31.95
2022-12-12T06:18:00.041Z,29.85
2022-12-12T06:20:34.003Z,29.17
2022-12-12T06:23:01.080Z,28.58
2022-12-12T06:25:27.989Z,28.95
2022-12-12T06:28:01.762Z,29.60
2022-12-12T06:30:34.912Z,29.50
2022-12-12T06:33:01.832Z,30.48
2022-12-12T06:35:28.815Z,34.92
2022-12-12T06:38:01.920Z,32.05
2022-12-12T06:40:28.797Z,29.20
2022-12-12T06:42:55.654Z,30.65
2022-12-12T06:45:28.788Z,28.00
2022-12-12T06:47:55.627Z,28.13
2022-12-12T06:50:29.047Z,29.33
2022-12-12T06:53:03.151Z,29.88
2022-12-12T06:55:30.034Z,32.38
2022-12-12T06:57:56.885Z,27.17
2022-12-12T07:00:30.816Z,27.10
2022-12-12T07:03:02.019Z,31.42
2022-12-12T07:05:29.007Z,29.17
2022-12-12T07:08:02.939Z,27.95
2022-12-12T07:10:37.900Z,29.13
2022-12-12T07:13:04.911Z,31.23
2022-12-12T07:15:31.862Z,31.67
2022-12-12T07:18:05.119Z,31.48
2022-12-12T07:20:32.089Z,33.95
2022-12-12T07:22:59.037Z,28.55
2022-12-12T07:25:32.147Z,29.58
2022-12-12T07:27:59.192Z,33.38
2022-12-12T07:30:26.022Z,31.02
2022-12-12T07:32:59.890Z,31.58
2022-12-12T07:35:26.803Z,32.70
2022-12-12T07:37:53.600Z,32.92
2022-12-12T07:40:26.862Z,33.40
2022-12-12T07:42:53.679Z,37.90
2022-12-12T07:45:20.843Z,32.33
2022-12-12T07:47:53.942Z,28.27
2022-12-12T07:50:21.304Z,29.58
2022-12-12T07:52:55.174Z,27.80
2022-12-12T07:55:22.133Z,26.48
2022-12-12T07:57:50.009Z,34.67
2022-12-12T08:00:23.909Z,30.52
2022-12-12T08:02:50.913Z,29.02
2022-12-12T08:05:18.073Z,27.75
2022-12-12T08:07:52.291Z,25.48
2022-12-12T08:10:19.322Z,27.05
2022-12-12T08:12:47.315Z,29.30
2022-12-12T08:15:26.001Z,27.40
2022-12-12T08:20:35.975Z,29.33
2022-12-12T08:25:49.954Z,27.35
2022-12-12T08:28:25.984Z,25.48
2022-12-12T08:30:52.973Z,25.40
2022-12-12T08:33:25.990Z,28.13
2022-12-12T08:35:58.976Z,35.17
2022-12-12T08:38:31.970Z,35.45
2022-12-12T08:41:05.748Z,30.42
2022-12-12T08:43:39.002Z,28.92
2022-12-12T08:46:11.002Z,31.45
2022-12-12T08:48:47.018Z,25.17
2022-12-12T08:51:18.386Z,32.55
2022-12-12T08:53:55.985Z,30.77
2022-12-12T08:56:25.721Z,29.85
2022-12-12T08:58:58.990Z,32.25
2022-12-12T09:01:27.440Z,28.10
2022-12-12T09:04:01.973Z,35.65
2022-12-12T09:06:28.814Z,31.75
2022-12-12T09:09:04.017Z,31.83
2022-12-12T09:11:37.043Z,29.42
2022-12-12T09:14:11.038Z,30.27
2022-12-12T09:16:44.112Z,29.88
2022-12-12T09:19:13.682Z,31.15
2022-12-12T09:21:47.063Z,32.10
2022-12-12T09:24:13.872Z,29.08
2022-12-12T09:26:47.065Z,28.83
2022-12-12T09:29:14.084Z,27.67
2022-12-12T09:31:41.040Z,29.02
2022-12-12T09:34:15.128Z,26.73
2022-12-12T09:36:48.059Z,24.33
2022-12-12T09:39:21.051Z,24.13
2022-12-12T09:41:54.077Z,21.63
2022-12-12T09:44:29.096Z,25.70
2022-12-12T09:47:01.148Z,24.73
2022-12-12T09:49:55.083Z,30.20
2022-12-12T09:52:33.365Z,27.35
2022-12-12T09:55:09.071Z,28.90
2022-12-12T09:57:52.034Z,27.55
2022-12-12T10:00:26.082Z,21.17
2022-12-12T10:03:05.540Z,28.52
2022-12-12T10:06:01.956Z,26.88
2022-12-12T10:08:50.114Z,23.35
2022-12-12T10:11:53.107Z,25.92
2022-12-12T10:17:27.152Z,20.55
2022-12-12T10:20:01.348Z,24.65
2022-12-12T10:22:55.183Z,33.33
2022-12-12T10:25:22.184Z,27.83
2022-12-12T10:28:30.183Z,27.45
2022-12-12T10:31:28.241Z,28.80
2022-12-12T10:34:04.910Z,26.52
2022-12-12T10:37:16.163Z,29.27
2022-12-12T10:39:51.863Z,31.40
2022-12-12T10:42:37.353Z,30.10
2022-12-12T10:45:25.164Z,32.70
2022-12-12T10:47:59.213Z,35.92
2022-12-12T10:50:36.260Z,28.95
2022-12-12T10:53:12.218Z,31.48
2022-12-12T10:55:45.952Z,27.80
2022-12-12T10:58:20.225Z,28.45
2022-12-12T11:00:55.241Z,30.75
2022-12-12T11:03:35.454Z,26.38
2022-12-12T11:06:17.186Z,25.88
2022-12-12T11:08:59.556Z,26.83
2022-12-12T11:11:34.239Z,24.38
2022-12-12T11:14:09.220Z,26.08
2022-12-12T11:16:44.309Z,23.10
2022-12-12T11:19:32.241Z,30.05
2022-12-12T11:22:11.299Z,22.08
2022-12-12T11:24:49.201Z,24.15
2022-12-12T11:27:35.277Z,25.92
2022-12-12T11:30:33.309Z,23.42
2022-12-12T11:33:00.887Z,27.48
2022-12-12T11:35:47.854Z,24.98
2022-12-12T11:38:47.267Z,25.38
2022-12-12T11:41:20.334Z,24.98
2022-12-12T11:43:56.333Z,24.35
2022-12-12T11:46:29.207Z,23.48
2022-12-12T11:49:11.345Z,28.30
2022-12-12T11:51:39.973Z,26.67
2022-12-12T11:54:25.329Z,24.48
2022-12-12T11:57:12.388Z,23.30
2022-12-12T12:00:14.228Z,25.73
2022-12-12T12:03:25.405Z,26.70
2022-12-12T12:05:55.450Z,23.63
2022-12-12T12:08:59.271Z,24.92
2022-12-12T12:12:20.377Z,27.23
2022-12-12T12:15:28.344Z,24.75
2022-12-12T12:18:28.271Z,26.95
2022-12-12T12:21:29.348Z,26.70
2022-12-12T12:24:08.089Z,23.40
2022-12-12T12:26:52.385Z,23.58
2022-12-12T12:29:43.368Z,23.92
2022-12-12T12:33:16.399Z,22.70
2022-12-12T12:36:00.322Z,23.35
2022-12-12T12:38:54.326Z,22.17
2022-12-12T12:41:51.461Z,24.40
2022-12-12T12:44:35.324Z,22.10
2022-12-12T12:47:28.606Z,17.95
2022-12-12T12:50:06.747Z,23.25
2022-12-12T12:52:45.388Z,22.35
2022-12-12T12:55:24.493Z,19.17
2022-12-12T12:57:53.023Z,16.90
2022-12-12T13:00:32.431Z,20.33
2022-12-12T13:03:04.976Z,20.55
2022-12-12T13:06:03.465Z,19.55
2022-12-12T13:08:42.490Z,20.05
2022-12-12T13:11:43.523Z,17.92
2022-12-12T13:14:43.419Z,17.05
2022-12-12T13:19:55.401Z,23.08
2022-12-12T13:22:28.109Z,22.75
2022-12-12T13:25:09.381Z,19.05
2022-12-12T13:27:52.473Z,20.05
2022-12-12T13:30:33.553Z,22.08
2022-12-12T13:33:12.339Z,20.77
2022-12-12T13:35:54.892Z,20.23
2022-12-12T13:38:27.664Z,23.30
2022-12-12T13:41:07.507Z,22.80
2022-12-12T13:43:34.476Z,21.95
2022-12-12T13:46:35.564Z,20.08
2022-12-12T13:49:26.840Z,19.90
2022-12-12T13:52:29.476Z,20.15
2022-12-12T13:55:20.483Z,18.15
2022-12-12T13:58:08.043Z,19.58
2022-12-12T14:00:43.499Z,21.35
2022-12-12T14:03:10.377Z,17.63
2022-12-12T14:05:53.545Z,20.23
2022-12-12T14:08:32.530Z,15.10
2022-12-12T14:11:08.659Z,16.58
2022-12-12T14:13:51.472Z,16.48
2022-12-12T14:16:32.499Z,13.70
2022-12-12T14:19:04.570Z,17.73
2022-12-12T14:21:49.544Z,14.43
2022-12-12T14:24:34.955Z,15.57
2022-12-12T14:27:09.522Z,16.10
2022-12-12T14:29:46.034Z,15.80
2022-12-12T14:32:19.569Z,13.13
2022-12-12T14:35:13.854Z,13.40
2022-12-12T14:38:18.557Z,15.85
2022-12-12T14:40:48.481Z,15.88
2022-12-12T14:43:28.653Z,11.88
2022-12-12T14:46:00.247Z,14.50
2022-12-12T14:48:41.558Z,12.10
2022-12-12T14:51:30.055Z,11.18
2022-12-12T14:54:05.567Z,10.57
2022-12-12T14:56:41.445Z,12.48
2022-12-12T14:59:43.584Z,16.45
2022-12-12T15:02:17.787Z,14.90
2022-12-12T15:05:00.950Z,14.65
2022-12-12T15:07:38.281Z,14.82
2022-12-12T15:10:33.574Z,14.18
2022-12-12T15:13:06.593Z,15.35
2022-12-12T15:15:41.568Z,15.63
2022-12-12T15:18:10.327Z,15.77
2022-12-12T15:20:43.614Z,13.15
2022-12-12T15:23:19.571Z,14.35
2022-12-12T15:26:01.653Z,14.57
2022-12-12T15:28:28.671Z,14.00
2022-12-12T15:31:02.663Z,12.98
2022-12-12T15:33:29.587Z,15.98
2022-12-12T15:36:04.768Z,14.57
2022-12-12T15:38:41.651Z,13.85
2022-12-12T15:41:16.636Z,14.00
2022-12-12T15:43:52.642Z,17.00
2022-12-12T15:46:19.784Z,16.98
2022-12-12T15:48:55.635Z,19.17
2022-12-12T15:51:28.456Z,18.33
2022-12-12T15:54:02.599Z,17.75
2022-12-12T15:56:29.753Z,16.40
2022-12-12T15:59:11.626Z,17.23
2022-12-12T16:01:45.996Z,14.35
2022-12-12T16:04:12.984Z,16.40
2022-12-12T16:06:52.665Z,15.10
2022-12-12T16:09:24.361Z,15.85
2022-12-12T16:12:04.750Z,16.95
2022-12-12T16:14:46.804Z,14.88
2022-12-12T16:17:31.872Z,16.40
2022-12-12T16:20:04.890Z,16.73
2022-12-12T16:22:52.668Z,15.77
2022-12-12T16:25:28.673Z,15.43
2022-12-12T16:28:26.655Z,17.95
2022-12-12T16:30:55.515Z,17.10
2022-12-12T16:33:31.665Z,14.63
2022-12-12T16:36:02.201Z,18.38
2022-12-12T16:38:36.799Z,17.90
2022-12-12T16:41:06.422Z,19.63
2022-12-12T16:43:33.251Z,18.75
2022-12-12T16:46:06.797Z,18.50
2022-12-12T16:48:43.711Z,19.60
2022-12-12T16:51:25.810Z,18.52
2022-12-12T16:53:58.765Z,17.92
2022-12-12T16:56:25.935Z,20.17
2022-12-12T16:58:53.387Z,18.38
2022-12-12T17:01:27.825Z,18.15
2022-12-12T17:03:58.754Z,18.63
2022-12-12T17:06:26.336Z,20.55
2022-12-12T17:08:59.723Z,22.35
2022-12-12T17:11:26.534Z,23.00
2022-12-12T17:13:59.761Z,22.40
2022-12-12T17:16:28.081Z,22.73
2022-12-12T17:18:55.264Z,23.33
2022-12-12T17:21:28.776Z,25.63
2022-12-12T17:23:55.733Z,21.85
2022-12-12T17:26:23.586Z,23.48
2022-12-12T17:28:56.792Z,23.17
2022-12-12T17:31:23.770Z,24.75
2022-12-12T17:33:51.440Z,21.42
2022-12-12T17:36:26.839Z,27.35
2022-12-12T17:38:53.831Z,21.77
2022-12-12T17:41:27.788Z,22.00
2022-12-12T17:43:56.305Z,19.50
2022-12-12T17:46:25.088Z,19.17
2022-12-12T17:49:00.019Z,20.58
2022-12-12T17:51:26.974Z,18.45
2022-12-12T17:53:54.852Z,20.70
2022-12-12T17:56:30.831Z,20.27
2022-12-12T17:58:58.129Z,20.35
2022-12-12T18:01:37.953Z,23.00
2022-12-12T18:04:06.167Z,22.27
2022-12-12T18:06:41.814Z,20.83
2022-12-12T18:09:08.976Z,20.98
2022-12-12T18:11:44.981Z,23.15
2022-12-12T18:14:18.563Z,20.92
2022-12-12T18:16:57.886Z,21.30
2022-12-12T18:19:27.534Z,20.02
2022-12-12T18:22:02.201Z,25.40
2022-12-12T18:24:36.896Z,23.30
2022-12-12T18:27:04.466Z,23.10
2022-12-12T18:29:39.252Z,25.55
2022-12-12T18:32:06.315Z,25.13
2022-12-12T18:34:33.401Z,24.17
2022-12-12T18:37:06.914Z,26.00
2022-12-12T18:39:33.852Z,24.38
2022-12-12T18:42:00.758Z,23.25
2022-12-12T18:44:34.089Z,26.92
2022-12-12T18:47:00.991Z,26.02
2022-12-12T18:49:27.825Z,32.92
2022-12-12T18:52:01.087Z,31.75
2022-12-12T18:54:27.923Z,25.92
2022-12-12T18:56:54.810Z,30.65
2022-12-12T18:59:29.075Z,27.55
2022-12-12T19:01:56.088Z,25.63
2022-12-12T19:04:23.910Z,24.17
2022-12-12T19:06:58.159Z,22.45
2022-12-12T19:09:25.000Z,21.17
2022-12-12T19:11:58.273Z,26.88
2022-12-12T19:14:52.296Z,24.58
2022-12-12T19:17:28.181Z,20.88
2022-12-12T19:19:55.215Z,21.52
2022-12-12T19:22:44.483Z,22.60
2022-12-12T19:25:15.949Z,20.88
2022-12-12T19:27:43.086Z,27.20
2022-12-12T19:30:18.251Z,23.67
2022-12-12T19:32:48.936Z,23.15
2022-12-12T19:35:23.188Z,22.42
2022-12-12T19:37:50.313Z,24.20
2022-12-12T19:40:17.551Z,23.10
2022-12-12T19:42:51.073Z,21.08
2022-12-12T19:45:18.301Z,19.45
2022-12-12T19:47:45.199Z,20.17
2022-12-12T19:50:19.524Z,22.38
2022-12-12T19:52:46.725Z,18.92
2022-12-12T19:55:32.974Z,20.67
2022-12-12T19:58:15.456Z,20.95
2022-12-12T20:00:52.199Z,22.27
2022-12-12T20:03:19.478Z,23.15
2022-12-12T20:05:50.495Z,20.10
2022-12-12T20:08:27.369Z,25.13
2022-12-12T20:10:54.418Z,23.92
2022-12-12T20:13:25.780Z,19.50
2022-12-12T20:15:59.115Z,23.85
2022-12-12T20:18:33.108Z,24.58
2022-12-12T20:21:10.044Z,25.05
2022-12-12T20:23:45.479Z,24.58
2022-12-12T20:26:24.045Z,23.85
2022-12-12T20:28:52.199Z,22.83
2022-12-12T20:31:22.171Z,22.05
2022-12-12T20:33:57.054Z,22.60
2022-12-12T20:36:40.054Z,21.58
2022-12-12T20:39:09.098Z,23.48
2022-12-12T20:41:47.084Z,19.73
2022-12-12T20:44:14.733Z,21.60
2022-12-12T20:46:51.096Z,20.90
2022-12-12T20:49:22.095Z,20.35
2022-12-12T20:52:00.103Z,20.42
2022-12-12T20:54:28.759Z,20.48
2022-12-12T20:56:58.649Z,21.98
2022-12-12T20:59:33.079Z,20.75
2022-12-12T21:02:09.210Z,22.90
2022-12-12T21:04:36.748Z,22.00
2022-12-12T21:07:10.124Z,20.00
2022-12-12T21:09:44.147Z,20.58
2022-12-12T21:12:22.059Z,19.73
2022-12-12T21:14:49.383Z,19.83
2022-12-12T21:17:23.105Z,19.92
2022-12-12T21:19:50.193Z,21.90
2022-12-12T21:22:24.125Z,21.80
2022-12-12T21:24:58.227Z,20.73
2022-12-12T21:27:25.118Z,20.98
2022-12-12T21:29:58.146Z,21.88
2022-12-12T21:32:27.855Z,20.52
2022-12-12T21:35:01.132Z,19.08
2022-12-12T21:37:28.056Z,19.13
2022-12-12T21:39:54.975Z,20.20
2022-12-12T21:42:28.154Z,18.00
2022-12-12T21:45:01.148Z,25.98
2022-12-12T21:47:30.357Z,19.67
2022-12-12T21:50:04.160Z,22.25
2022-12-12T21:52:31.041Z,20.30
2022-12-12T21:54:57.977Z,20.58
2022-12-12T21:57:34.168Z,18.95
2022-12-12T22:00:00.985Z,22.40
2022-12-12T22:02:35.222Z,20.95
2022-12-12T22:05:01.994Z,18.63
2022-12-12T22:07:35.167Z,19.95
2022-12-12T22:10:10.896Z,21.52
2022-12-12T22:12:56.933Z,22.98
2022-12-12T22:15:24.455Z,21.20
2022-12-12T22:17:58.175Z,21.48
2022-12-12T22:20:25.133Z,22.67
2022-12-12T22:22:58.498Z,18.67
2022-12-12T22:25:25.959Z,22.13
2022-12-12T22:27:59.162Z,22.63
2022-12-12T22:30:25.979Z,20.80
2022-12-12T22:32:59.244Z,19.50
2022-12-12T22:35:32.190Z,21.15
2022-12-12T22:37:59.864Z,18.92
2022-12-12T22:40:33.256Z,19.92
2022-12-12T22:43:06.219Z,20.70
2022-12-12T22:45:34.577Z,19.85
2022-12-12T22:48:08.205Z,21.55
2022-12-12T22:50:34.949Z,19.73
2022-12-12T22:53:08.238Z,19.27
2022-12-12T22:55:35.923Z,19.77
2022-12-12T22:58:05.420Z,22.65
2022-12-12T23:00:39.281Z,21.17
2022-12-12T23:03:07.200Z,22.65
2022-12-12T23:05:40.325Z,19.50
2022-12-12T23:08:12.846Z,21.98
2022-12-12T23:10:46.250Z,19.98
2022-12-12T23:13:13.474Z,18.45
2022-12-12T23:15:42.461Z,19.55
2022-12-12T23:18:18.293Z,18.30
2022-12-12T23:20:53.293Z,22.25
2022-12-12T23:23:20.084Z,20.35
2022-12-12T23:25:53.308Z,18.77
2022-12-12T23:28:20.182Z,21.85
2022-12-12T23:31:01.299Z,20.77
2022-12-12T23:33:36.261Z,22.42
2022-12-12T23:36:10.451Z,23.38
2022-12-12T23:38:44.306Z,19.10
2022-12-12T23:41:13.712Z,20.45
2022-12-12T23:43:48.309Z,19.33
2022-12-12T23:46:33.881Z,20.30
2022-12-12T23:49:19.402Z,18.98
2022-12-12T23:51:56.357Z,18.65
2022-12-12T23:54:38.319Z,20.50
2022-12-12T23:57:15.333Z,19.10
2022-12-12T23:59:42.152Z,20.30
